createdAt,value
2023-04-13T00:04:40.058Z,7.90
2023-04-13T00:14:44.206Z,7.90
2023-04-13T00:24:50.159Z,7.89
2023-04-13T00:34:53.426Z,7.95
2023-04-13T00:44:58.368Z,7.88
2023-04-13T00:55:02.862Z,7.95
2023-04-13T01:05:07.682Z,7.85
2023-04-13T01:15:14.925Z,7.81
2023-04-13T01:25:41.974Z,7.75
2023-04-13T01:35:47.239Z,7.70
2023-04-13T01:45:59.539Z,7.71
2023-04-13T01:56:07.188Z,7.72
2023-04-13T02:06:11.385Z,7.72
2023-04-13T02:16:19.686Z,7.67
2023-04-13T02:26:22.773Z,7.69
2023-04-13T02:36:27.866Z,7.75
2023-04-13T02:46:39.291Z,7.70
2023-04-13T02:56:55.983Z,7.73
2023-04-13T03:06:59.442Z,7.73
2023-04-13T03:17:08.447Z,7.77
2023-04-13T03:27:16.469Z,7.79
2023-04-13T03:37:30.320Z,7.85
2023-04-13T03:47:41.660Z,7.86
2023-04-13T03:57:47.774Z,7.87
2023-04-13T04:07:55.024Z,7.93
2023-04-13T04:18:00.469Z,7.92
2023-04-13T04:28:04.570Z,7.89
2023-04-13T04:38:11.480Z,7.89
2023-04-13T04:48:14.845Z,7.95
2023-04-13T04:58:23.044Z,7.89
2023-04-13T05:08:30.733Z,8.01
2023-04-13T05:18:45.109Z,8.03
2023-04-13T05:28:54.407Z,8.22
2023-04-13T05:39:00.393Z,8.23
2023-04-13T05:49:05.134Z,8.26
2023-04-13T05:59:11.482Z,8.31
2023-04-13T06:09:15.753Z,8.16
2023-04-13T06:19:22.291Z,8.16
2023-04-13T06:29:25.680Z,8.19
2023-04-13T06:39:38.911Z,8.16
2023-04-13T06:49:44.481Z,8.18
2023-04-13T06:59:49.460Z,8.35
2023-04-13T07:09:52.873Z,8.28
2023-04-13T07:19:58.401Z,8.48
2023-04-13T07:30:02.061Z,8.66
2023-04-13T07:40:14.447Z,8.97
2023-04-13T07:50:21.539Z,9.43
2023-04-13T08:00:27.492Z,9.32
2023-04-13T08:10:34.996Z,9.46
2023-04-13T08:20:42.636Z,9.42
2023-04-13T08:30:46.320Z,9.24
2023-04-13T08:40:51.480Z,9.20
2023-04-13T08:51:01.718Z,9.49
2023-04-13T09:01:13.632Z,9.85
2023-04-13T09:11:17.659Z,10.12
2023-04-13T09:21:23.798Z,10.02
2023-04-13T09:31:29.447Z,10.03
2023-04-13T09:41:36.266Z,10.00
2023-04-13T09:51:41.405Z,10.29
2023-04-13T10:01:48.101Z,10.85
2023-04-13T10:11:52.566Z,11.10
2023-04-13T10:21:58.962Z,10.79
2023-04-13T10:32:05.369Z,11.16
2023-04-13T10:42:12.802Z,11.54
2023-04-13T10:52:16.935Z,11.36
2023-04-13T11:02:21.583Z,11.01
2023-04-13T11:12:24.626Z,10.90
2023-04-13T11:22:36.607Z,12.25
2023-04-13T11:32:43.481Z,12.18
2023-04-13T11:42:50.459Z,11.95
2023-04-13T11:52:56.888Z,12.35
2023-04-13T12:03:03.386Z,12.47
2023-04-13T12:35:27.569Z,13.32
2023-04-13T12:45:33.397Z,12.78
2023-04-13T12:55:38.621Z,13.29
2023-04-13T13:05:42.390Z,13.39
2023-04-13T13:15:47.016Z,13.52
2023-04-13T13:26:04.441Z,13.31
2023-04-13T13:36:15.507Z,14.10
2023-04-13T13:46:19.564Z,14.33
2023-04-13T13:56:25.809Z,14.52
2023-04-13T14:06:28.902Z,14.59
2023-04-13T14:16:33.715Z,14.51
2023-04-13T14:26:38.433Z,14.45
2023-04-13T14:36:45.646Z,14.17
2023-04-13T14:46:49.485Z,14.05
2023-04-13T14:56:55.348Z,14.25
2023-04-13T15:06:59.328Z,13.98
2023-04-13T15:17:04.661Z,14.12
2023-04-13T15:27:07.810Z,13.94
2023-04-13T15:37:12.542Z,13.76
2023-04-13T15:47:16.126Z,13.44
2023-04-13T15:57:21.048Z,13.38
2023-04-13T16:07:24.138Z,13.52
2023-04-13T16:17:32.489Z,13.49
2023-04-13T16:27:36.241Z,13.94
2023-04-13T16:37:42.455Z,13.55
2023-04-13T16:47:45.613Z,13.41
2023-04-13T16:57:50.077Z,13.33
2023-04-13T17:07:53.331Z,13.24
2023-04-13T17:17:57.829Z,13.33
2023-04-13T17:28:01.662Z,13.17
2023-04-13T17:38:06.330Z,13.13
2023-04-13T17:48:09.496Z,13.12
2023-04-13T17:58:14.706Z,13.03
2023-04-13T18:08:18.002Z,12.94
2023-04-13T18:18:24.498Z,12.83
2023-04-13T18:28:27.479Z,12.58
2023-04-13T18:38:34.033Z,12.51
2023-04-13T18:48:37.146Z,11.95
2023-04-13T18:58:41.815Z,11.62
2023-04-13T19:08:44.798Z,11.27
2023-04-13T19:18:49.710Z,11.28
2023-04-13T19:28:54.030Z,10.91
2023-04-13T19:39:04.320Z,9.65
2023-04-13T19:49:08.079Z,9.30
2023-04-13T19:59:13.093Z,9.45
2023-04-13T20:09:16.262Z,9.88
2023-04-13T20:19:21.233Z,9.46
2023-04-13T20:29:27.326Z,9.65
2023-04-13T20:39:32.000Z,9.67
2023-04-13T20:49:35.336Z,9.45
2023-04-13T20:59:40.389Z,9.62
2023-04-13T21:09:44.612Z,9.60
2023-04-13T21:19:49.066Z,9.74
2023-04-13T21:29:52.001Z,9.38
2023-04-13T21:39:58.049Z,9.53
2023-04-13T21:50:03.634Z,9.32
2023-04-13T22:00:09.703Z,8.93
2023-04-13T22:10:15.435Z,9.03
2023-04-13T22:20:20.369Z,8.82
2023-04-13T22:30:24.134Z,8.95
2023-04-13T22:40:28.744Z,8.62
2023-04-13T22:50:32.427Z,7.75
2023-04-13T23:00:36.904Z,8.33
2023-04-13T23:10:41.463Z,8.28
2023-04-13T23:20:46.178Z,8.20
2023-04-13T23:30:49.129Z,8.34
2023-04-13T23:40:54.612Z,7.94
2023-04-13T23:50:58.419Z,8.11
